Wednesday, December 12, 2018, 11:06 PM EST
Back to Local

KMMU, Morristown Municipal

Location: Morristown, NJ, United States Lat: 40.8
Local Time: 11:06 PM EST ( 4:06 GMT) Lon: -74.417
Time Zone: US/Eastern Elev: 187 ft

Show me the last for .
Show Decoded

2018-12-12 22:35 METAR KMMU 130335Z AUTO 00000KT 10SM CLR M04/M05 A3024 RMK AO2 =
2018-12-12 22:15 METAR KMMU 130315Z AUTO 00000KT 10SM CLR M04/M05 A3023 RMK AO2 =
2018-12-12 21:45 METAR KMMU 130245Z 00000KT 10SM SKC M04/M05 A3025 =
2018-12-12 20:45 METAR KMMU 130145Z 00000KT 10SM SKC M03/M05 A3024 =
2018-12-12 19:45 METAR KMMU 130045Z 29003KT 10SM SCT200 M03/M04 A3024 =
2018-12-12 18:45 METAR KMMU 122345Z 00000KT 10SM SCT200 M01/M04 A3022 =
2018-12-12 17:45 METAR KMMU 122245Z 00000KT 10SM BKN042 M01/M04 A3019 =
2018-12-12 16:45 METAR KMMU 122145Z 33003KT 10SM BKN042 03/M05 A3017 =
2018-12-12 15:45 METAR KMMU 122045Z 34005KT 10SM BKN042 03/M05 A3016 =
2018-12-12 14:45 METAR KMMU 121945Z 36003KT 10SM OVC040 04/M03 A3014 =
2018-12-12 13:45 METAR KMMU 121845Z 32003KT 10SM OVC040 04/M03 A3015 =
2018-12-12 12:45 METAR KMMU 121745Z 31006KT 10SM OVC034 03/M03 A3014 =
2018-12-12 11:50 METAR KMMU 121650Z 31004KT 10SM OVC035 03/M02 A3014 =
2018-12-12 10:55 METAR KMMU 121555Z 34005KT 10SM SCT030 BKN036 OVC043 03/M03 A3015 =
2018-12-12 09:45 METAR KMMU 121445Z 30005KT 10SM OVC030 02/M03 A3014 =
2018-12-12 08:45 METAR KMMU 121345Z 30006KT 10SM OVC029 02/M03 A3013 =
2018-12-12 07:45 METAR KMMU 121245Z 30007KT 10SM SCT070 00/M04 A3010 =
2018-12-12 06:46 METAR KMMU 121146Z 32006KT 10SM FEW070 00/M04 A3007 =
2018-12-12 06:45 METAR KMMU 121145Z 32006KT 10SM FEW070 00/M04 A3007 =
2018-12-12 06:35 METAR KMMU 121135Z AUTO 31005KT 10SM SCT030 M01/M04 A3007 RMK AO2 =
2018-12-12 06:15 METAR KMMU 121115Z AUTO 29005KT 10SM BKN030 M02/M05 A3006 RMK AO2 =
2018-12-12 05:55 METAR KMMU 121055Z AUTO 28003KT 10SM SCT030 M02/M05 A3005 RMK AO2 =
2018-12-12 05:35 METAR KMMU 121035Z AUTO 27004KT 10SM BKN030 M01/M05 A3004 RMK AO2 =
2018-12-12 05:15 METAR KMMU 121015Z AUTO 28003KT 10SM SCT030 SCT070 M01/M05 A3004 RMK AO2 =
2018-12-12 04:55 METAR KMMU 120955Z AUTO 28004KT 10SM BKN070 M01/M05 A3003 RMK AO2 =
2018-12-12 04:35 METAR KMMU 120935Z AUTO 26003KT 10SM OVC070 M00/M05 A3002 RMK AO2 =
2018-12-12 04:15 METAR KMMU 120915Z AUTO 29004KT 10SM OVC070 00/M05 A3002 RMK AO2 =
2018-12-12 03:55 METAR KMMU 120855Z AUTO 30005KT 10SM BKN070 00/M05 A3001 RMK AO2 =
2018-12-12 03:35 METAR KMMU 120835Z AUTO 29007KT 10SM SCT065 00/M05 A3001 RMK AO2 =
2018-12-12 03:15 METAR KMMU 120815Z AUTO 29007KT 10SM BKN065 00/M05 A3000 RMK AO2 =
2018-12-12 02:55 METAR KMMU 120755Z AUTO 29006KT 10SM OVC065 00/M05 A3000 RMK AO2 =
2018-12-12 02:35 METAR KMMU 120735Z AUTO 28006KT 10SM OVC065 00/M05 A3000 RMK AO2 =
2018-12-12 02:15 METAR KMMU 120715Z AUTO 30004KT 10SM OVC065 00/M05 A3000 RMK AO2 =
2018-12-12 01:55 METAR KMMU 120655Z AUTO 29004KT 10SM OVC065 00/M05 A2999 RMK AO2 =
2018-12-12 01:35 METAR KMMU 120635Z AUTO 29005KT 10SM OVC065 00/M05 A2998 RMK AO2 =
2018-12-12 01:15 METAR KMMU 120615Z AUTO 28004KT 10SM OVC065 00/M06 A2998 RMK AO2 =
2018-12-12 00:55 METAR KMMU 120555Z AUTO 29005KT 10SM OVC065 00/M06 A2997 RMK AO2 =
2018-12-12 00:35 METAR KMMU 120535Z AUTO 29003KT 10SM OVC065 00/M06 A2998 RMK AO2 =
2018-12-12 00:15 METAR KMMU 120515Z AUTO 29003KT 10SM SCT065 OVC080 00/M06 A2997 RMK AO2 =
2018-12-11 23:55 METAR KMMU 120455Z AUTO 29003KT 10SM OVC075 00/M06 A2997 RMK AO2 =
2018-12-11 23:35 METAR KMMU 120435Z AUTO 29003KT 10SM SCT065 OVC075 00/M06 A2997 RMK AO2 =
2018-12-11 23:15 METAR KMMU 120415Z AUTO 31004KT 10SM OVC065 00/M06 A2997 RMK AO2 =

Support USWX by starting your Amazon purchase here.